sensor_id;sensor_type;location;lat;lon;timestamp;P1;durP1;ratioP1;P2;durP2;ratioP2
19149;SDS011;9707;49.158;8.632;2023-12-07T00:01:02;10.05;;;8.15;;
19149;SDS011;9707;49.158;8.632;2023-12-07T00:03:27;16.10;;;8.63;;
19149;SDS011;9707;49.158;8.632;2023-12-07T00:05:52;11.75;;;8.07;;
19149;SDS011;9707;49.158;8.632;2023-12-07T00:08:18;13.88;;;7.70;;
19149;SDS011;9707;49.158;8.632;2023-12-07T00:10:43;10.18;;;8.02;;
19149;SDS011;9707;49.158;8.632;2023-12-07T00:13:08;11.63;;;8.18;;
19149;SDS011;9707;49.158;8.632;2023-12-07T00:15:34;12.32;;;8.63;;
19149;SDS011;9707;49.158;8.632;2023-12-07T00:17:59;12.30;;;7.82;;
19149;SDS011;9707;49.158;8.632;2023-12-07T00:20:25;11.10;;;7.88;;
19149;SDS011;9707;49.158;8.632;2023-12-07T00:22:51;11.27;;;7.95;;
19149;SDS011;9707;49.158;8.632;2023-12-07T00:25:16;13.48;;;8.10;;
19149;SDS011;9707;49.158;8.632;2023-12-07T00:27:41;11.23;;;8.43;;
19149;SDS011;9707;49.158;8.632;2023-12-07T00:30:06;12.15;;;7.00;;
19149;SDS011;9707;49.158;8.632;2023-12-07T00:32:32;10.13;;;8.05;;
19149;SDS011;9707;49.158;8.632;2023-12-07T00:34:57;12.20;;;8.52;;
19149;SDS011;9707;49.158;8.632;2023-12-07T00:37:23;11.88;;;7.90;;
19149;SDS011;9707;49.158;8.632;2023-12-07T00:39:48;10.73;;;7.30;;
19149;SDS011;9707;49.158;8.632;2023-12-07T00:42:13;9.13;;;7.18;;
19149;SDS011;9707;49.158;8.632;2023-12-07T00:44:39;9.68;;;7.45;;
19149;SDS011;9707;49.158;8.632;2023-12-07T00:47:05;11.45;;;7.35;;
19149;SDS011;9707;49.158;8.632;2023-12-07T00:49:30;10.15;;;7.18;;
19149;SDS011;9707;49.158;8.632;2023-12-07T00:51:56;9.30;;;7.68;;
19149;SDS011;9707;49.158;8.632;2023-12-07T00:54:21;9.85;;;7.43;;
19149;SDS011;9707;49.158;8.632;2023-12-07T00:56:46;9.65;;;7.03;;
19149;SDS011;9707;49.158;8.632;2023-12-07T00:59:11;9.75;;;7.38;;
19149;SDS011;9707;49.158;8.632;2023-12-07T01:01:37;11.88;;;7.05;;
19149;SDS011;9707;49.158;8.632;2023-12-07T01:04:03;10.40;;;7.65;;
19149;SDS011;9707;49.158;8.632;2023-12-07T01:06:30;8.55;;;6.90;;
19149;SDS011;9707;49.158;8.632;2023-12-07T01:08:55;9.35;;;7.53;;
19149;SDS011;9707;49.158;8.632;2023-12-07T01:11:20;9.05;;;7.07;;
19149;SDS011;9707;49.158;8.632;2023-12-07T01:13:46;11.27;;;7.47;;
19149;SDS011;9707;49.158;8.632;2023-12-07T01:16:11;9.45;;;7.10;;
19149;SDS011;9707;49.158;8.632;2023-12-07T01:18:36;8.75;;;7.35;;
19149;SDS011;9707;49.158;8.632;2023-12-07T01:21:02;10.63;;;7.53;;
19149;SDS011;9707;49.158;8.632;2023-12-07T01:23:28;11.32;;;7.43;;
19149;SDS011;9707;49.158;8.632;2023-12-07T01:25:53;9.15;;;7.00;;
19149;SDS011;9707;49.158;8.632;2023-12-07T01:28:18;11.38;;;7.28;;
19149;SDS011;9707;49.158;8.632;2023-12-07T01:30:44;12.27;;;7.65;;
19149;SDS011;9707;49.158;8.632;2023-12-07T01:33:09;10.85;;;7.15;;
19149;SDS011;9707;49.158;8.632;2023-12-07T01:35:34;11.95;;;7.90;;
19149;SDS011;9707;49.158;8.632;2023-12-07T01:37:59;8.63;;;6.95;;
19149;SDS011;9707;49.158;8.632;2023-12-07T01:40:25;8.55;;;6.85;;
19149;SDS011;9707;49.158;8.632;2023-12-07T01:42:50;11.38;;;7.43;;
19149;SDS011;9707;49.158;8.632;2023-12-07T01:45:16;9.02;;;6.80;;
19149;SDS011;9707;49.158;8.632;2023-12-07T01:47:42;11.20;;;6.75;;
19149;SDS011;9707;49.158;8.632;2023-12-07T01:50:09;14.52;;;8.25;;
19149;SDS011;9707;49.158;8.632;2023-12-07T01:52:35;10.65;;;7.65;;
19149;SDS011;9707;49.158;8.632;2023-12-07T01:55:06;12.48;;;8.20;;
19149;SDS011;9707;49.158;8.632;2023-12-07T01:57:34;9.20;;;7.28;;
19149;SDS011;9707;49.158;8.632;2023-12-07T02:00:00;10.65;;;7.60;;
19149;SDS011;9707;49.158;8.632;2023-12-07T02:02:26;11.60;;;7.53;;
19149;SDS011;9707;49.158;8.632;2023-12-07T02:04:51;10.05;;;7.75;;
19149;SDS011;9707;49.158;8.632;2023-12-07T02:07:17;10.23;;;7.03;;
19149;SDS011;9707;49.158;8.632;2023-12-07T02:09:42;9.45;;;7.05;;
19149;SDS011;9707;49.158;8.632;2023-12-07T02:12:08;9.10;;;6.43;;
19149;SDS011;9707;49.158;8.632;2023-12-07T02:14:33;9.07;;;7.18;;
19149;SDS011;9707;49.158;8.632;2023-12-07T02:17:14;10.10;;;7.07;;
19149;SDS011;9707;49.158;8.632;2023-12-07T02:19:57;8.40;;;6.43;;
19149;SDS011;9707;49.158;8.632;2023-12-07T02:22:38;9.15;;;7.20;;
19149;SDS011;9707;49.158;8.632;2023-12-07T02:25:08;8.75;;;6.82;;
19149;SDS011;9707;49.158;8.632;2023-12-07T02:27:36;9.23;;;6.82;;
19149;SDS011;9707;49.158;8.632;2023-12-07T02:30:02;9.82;;;6.20;;
19149;SDS011;9707;49.158;8.632;2023-12-07T02:32:29;9.43;;;6.32;;
19149;SDS011;9707;49.158;8.632;2023-12-07T02:34:54;8.95;;;6.38;;
19149;SDS011;9707;49.158;8.632;2023-12-07T02:37:20;9.50;;;6.68;;
19149;SDS011;9707;49.158;8.632;2023-12-07T02:39:47;7.53;;;6.07;;
19149;SDS011;9707;49.158;8.632;2023-12-07T02:42:14;8.25;;;5.70;;
19149;SDS011;9707;49.158;8.632;2023-12-07T02:44:40;9.32;;;5.97;;
19149;SDS011;9707;49.158;8.632;2023-12-07T02:47:08;7.65;;;5.78;;
19149;SDS011;9707;49.158;8.632;2023-12-07T02:49:33;8.13;;;5.68;;
19149;SDS011;9707;49.158;8.632;2023-12-07T02:51:58;9.10;;;6.43;;
19149;SDS011;9707;49.158;8.632;2023-12-07T02:54:24;6.70;;;5.45;;
19149;SDS011;9707;49.158;8.632;2023-12-07T02:56:49;7.15;;;5.93;;
19149;SDS011;9707;49.158;8.632;2023-12-07T02:59:14;8.73;;;5.57;;
19149;SDS011;9707;49.158;8.632;2023-12-07T03:01:40;10.05;;;6.22;;
19149;SDS011;9707;49.158;8.632;2023-12-07T03:04:05;8.05;;;5.28;;
19149;SDS011;9707;49.158;8.632;2023-12-07T03:06:30;7.75;;;5.65;;
19149;SDS011;9707;49.158;8.632;2023-12-07T03:08:55;11.02;;;6.22;;
19149;SDS011;9707;49.158;8.632;2023-12-07T03:11:21;8.95;;;6.15;;
19149;SDS011;9707;49.158;8.632;2023-12-07T03:13:46;6.70;;;5.53;;
19149;SDS011;9707;49.158;8.632;2023-12-07T03:16:11;7.13;;;5.93;;
19149;SDS011;9707;49.158;8.632;2023-12-07T03:18:37;7.72;;;6.32;;
19149;SDS011;9707;49.158;8.632;2023-12-07T03:21:02;7.90;;;5.60;;
19149;SDS011;9707;49.158;8.632;2023-12-07T03:23:28;6.28;;;5.53;;
19149;SDS011;9707;49.158;8.632;2023-12-07T03:25:53;9.35;;;6.18;;
19149;SDS011;9707;49.158;8.632;2023-12-07T03:28:18;6.95;;;5.75;;
19149;SDS011;9707;49.158;8.632;2023-12-07T03:30:44;8.70;;;6.50;;
19149;SDS011;9707;49.158;8.632;2023-12-07T03:33:09;25.25;;;14.32;;
19149;SDS011;9707;49.158;8.632;2023-12-07T03:35:34;19.35;;;11.30;;
19149;SDS011;9707;49.158;8.632;2023-12-07T03:37:59;15.88;;;8.90;;
19149;SDS011;9707;49.158;8.632;2023-12-07T03:40:24;10.80;;;6.97;;
19149;SDS011;9707;49.158;8.632;2023-12-07T03:42:50;7.80;;;6.40;;
19149;SDS011;9707;49.158;8.632;2023-12-07T03:45:15;7.00;;;5.43;;
19149;SDS011;9707;49.158;8.632;2023-12-07T03:47:41;8.43;;;5.75;;
19149;SDS011;9707;49.158;8.632;2023-12-07T03:50:06;6.53;;;5.35;;
19149;SDS011;9707;49.158;8.632;2023-12-07T03:52:31;8.25;;;5.25;;
19149;SDS011;9707;49.158;8.632;2023-12-07T03:54:57;6.40;;;4.47;;
19149;SDS011;9707;49.158;8.632;2023-12-07T03:57:22;7.00;;;5.50;;
19149;SDS011;9707;49.158;8.632;2023-12-07T03:59:47;8.90;;;5.50;;
19149;SDS011;9707;49.158;8.632;2023-12-07T04:02:12;7.68;;;5.35;;
19149;SDS011;9707;49.158;8.632;2023-12-07T04:04:38;10.45;;;6.47;;
19149;SDS011;9707;49.158;8.632;2023-12-07T04:07:03;8.15;;;4.38;;
19149;SDS011;9707;49.158;8.632;2023-12-07T04:09:28;5.38;;;4.85;;
19149;SDS011;9707;49.158;8.632;2023-12-07T04:11:55;4.88;;;4.13;;
19149;SDS011;9707;49.158;8.632;2023-12-07T04:14:21;5.85;;;4.82;;
19149;SDS011;9707;49.158;8.632;2023-12-07T04:16:46;6.07;;;5.43;;
19149;SDS011;9707;49.158;8.632;2023-12-07T04:19:12;6.43;;;4.93;;
19149;SDS011;9707;49.158;8.632;2023-12-07T04:21:37;5.95;;;4.20;;
19149;SDS011;9707;49.158;8.632;2023-12-07T04:24:02;7.07;;;5.18;;
19149;SDS011;9707;49.158;8.632;2023-12-07T04:26:28;7.68;;;5.10;;
19149;SDS011;9707;49.158;8.632;2023-12-07T04:28:54;8.93;;;5.38;;
19149;SDS011;9707;49.158;8.632;2023-12-07T04:31:19;6.47;;;5.22;;
19149;SDS011;9707;49.158;8.632;2023-12-07T04:33:46;9.38;;;6.35;;
19149;SDS011;9707;49.158;8.632;2023-12-07T04:36:11;9.82;;;6.68;;
19149;SDS011;9707;49.158;8.632;2023-12-07T04:38:37;8.20;;;6.40;;
19149;SDS011;9707;49.158;8.632;2023-12-07T04:41:02;6.75;;;4.10;;
19149;SDS011;9707;49.158;8.632;2023-12-07T04:43:28;8.57;;;5.68;;
19149;SDS011;9707;49.158;8.632;2023-12-07T04:45:53;7.47;;;5.57;;
19149;SDS011;9707;49.158;8.632;2023-12-07T04:48:18;8.80;;;4.85;;
19149;SDS011;9707;49.158;8.632;2023-12-07T04:50:44;6.43;;;3.80;;
19149;SDS011;9707;49.158;8.632;2023-12-07T04:53:09;7.78;;;5.60;;
19149;SDS011;9707;49.158;8.632;2023-12-07T04:55:34;7.55;;;5.30;;
19149;SDS011;9707;49.158;8.632;2023-12-07T04:58:00;6.63;;;4.78;;
19149;SDS011;9707;49.158;8.632;2023-12-07T05:00:26;7.20;;;5.30;;
19149;SDS011;9707;49.158;8.632;2023-12-07T05:02:52;7.55;;;6.30;;
19149;SDS011;9707;49.158;8.632;2023-12-07T05:05:17;7.47;;;5.95;;
19149;SDS011;9707;49.158;8.632;2023-12-07T05:07:43;7.28;;;5.53;;
19149;SDS011;9707;49.158;8.632;2023-12-07T05:10:08;9.02;;;5.93;;
19149;SDS011;9707;49.158;8.632;2023-12-07T05:12:34;6.93;;;4.90;;
19149;SDS011;9707;49.158;8.632;2023-12-07T05:15:00;7.60;;;5.60;;
19149;SDS011;9707;49.158;8.632;2023-12-07T05:17:26;5.93;;;5.15;;
19149;SDS011;9707;49.158;8.632;2023-12-07T05:19:51;6.82;;;4.93;;
19149;SDS011;9707;49.158;8.632;2023-12-07T05:22:16;4.88;;;3.80;;
19149;SDS011;9707;49.158;8.632;2023-12-07T05:24:42;8.50;;;5.80;;
19149;SDS011;9707;49.158;8.632;2023-12-07T05:27:07;8.32;;;5.10;;
19149;SDS011;9707;49.158;8.632;2023-12-07T05:29:32;5.50;;;4.35;;
19149;SDS011;9707;49.158;8.632;2023-12-07T05:31:57;7.32;;;5.05;;
19149;SDS011;9707;49.158;8.632;2023-12-07T05:34:22;6.78;;;5.40;;
19149;SDS011;9707;49.158;8.632;2023-12-07T05:36:48;8.10;;;5.55;;
19149;SDS011;9707;49.158;8.632;2023-12-07T05:39:13;8.57;;;6.13;;
19149;SDS011;9707;49.158;8.632;2023-12-07T05:41:38;8.32;;;5.47;;
19149;SDS011;9707;49.158;8.632;2023-12-07T05:44:04;8.27;;;4.43;;
19149;SDS011;9707;49.158;8.632;2023-12-07T05:46:29;7.60;;;5.75;;
19149;SDS011;9707;49.158;8.632;2023-12-07T05:48:54;10.25;;;6.00;;
19149;SDS011;9707;49.158;8.632;2023-12-07T05:51:20;25.45;;;13.57;;
19149;SDS011;9707;49.158;8.632;2023-12-07T05:53:45;23.17;;;11.52;;
19149;SDS011;9707;49.158;8.632;2023-12-07T05:56:10;15.75;;;8.57;;
19149;SDS011;9707;49.158;8.632;2023-12-07T05:58:38;13.00;;;7.22;;
19149;SDS011;9707;49.158;8.632;2023-12-07T06:01:04;13.02;;;7.43;;
19149;SDS011;9707;49.158;8.632;2023-12-07T06:03:30;8.48;;;6.57;;
19149;SDS011;9707;49.158;8.632;2023-12-07T06:05:55;7.82;;;6.80;;
19149;SDS011;9707;49.158;8.632;2023-12-07T06:08:21;8.45;;;6.28;;
19149;SDS011;9707;49.158;8.632;2023-12-07T06:10:47;8.32;;;6.63;;
19149;SDS011;9707;49.158;8.632;2023-12-07T06:13:12;9.23;;;5.85;;
19149;SDS011;9707;49.158;8.632;2023-12-07T06:15:38;8.60;;;6.55;;
19149;SDS011;9707;49.158;8.632;2023-12-07T06:18:04;7.72;;;6.00;;
19149;SDS011;9707;49.158;8.632;2023-12-07T06:20:29;7.47;;;6.55;;
19149;SDS011;9707;49.158;8.632;2023-12-07T06:22:54;12.57;;;6.68;;
19149;SDS011;9707;49.158;8.632;2023-12-07T06:25:20;8.43;;;7.18;;
19149;SDS011;9707;49.158;8.632;2023-12-07T06:27:45;8.60;;;6.22;;
19149;SDS011;9707;49.158;8.632;2023-12-07T06:30:11;7.82;;;6.30;;
19149;SDS011;9707;49.158;8.632;2023-12-07T06:32:36;9.70;;;7.20;;
19149;SDS011;9707;49.158;8.632;2023-12-07T06:35:02;10.57;;;7.07;;
19149;SDS011;9707;49.158;8.632;2023-12-07T06:37:29;8.07;;;6.10;;
19149;SDS011;9707;49.158;8.632;2023-12-07T06:39:54;11.07;;;7.43;;
19149;SDS011;9707;49.158;8.632;2023-12-07T06:42:20;9.30;;;7.07;;
19149;SDS011;9707;49.158;8.632;2023-12-07T06:44:48;11.70;;;6.95;;
19149;SDS011;9707;49.158;8.632;2023-12-07T06:47:16;8.88;;;6.55;;
19149;SDS011;9707;49.158;8.632;2023-12-07T06:49:41;10.73;;;6.43;;
19149;SDS011;9707;49.158;8.632;2023-12-07T06:52:07;8.68;;;6.47;;
19149;SDS011;9707;49.158;8.632;2023-12-07T06:54:33;9.00;;;6.20;;
19149;SDS011;9707;49.158;8.632;2023-12-07T06:56:59;9.80;;;5.65;;
19149;SDS011;9707;49.158;8.632;2023-12-07T06:59:24;12.80;;;8.10;;
19149;SDS011;9707;49.158;8.632;2023-12-07T07:01:49;9.68;;;7.85;;
19149;SDS011;9707;49.158;8.632;2023-12-07T07:04:15;11.52;;;7.90;;
19149;SDS011;9707;49.158;8.632;2023-12-07T07:06:41;8.27;;;6.25;;
19149;SDS011;9707;49.158;8.632;2023-12-07T07:09:06;6.30;;;4.75;;
19149;SDS011;9707;49.158;8.632;2023-12-07T07:11:31;9.27;;;5.57;;
19149;SDS011;9707;49.158;8.632;2023-12-07T07:13:57;7.13;;;5.63;;
19149;SDS011;9707;49.158;8.632;2023-12-07T07:16:22;6.57;;;4.78;;
19149;SDS011;9707;49.158;8.632;2023-12-07T07:18:47;6.72;;;4.93;;
19149;SDS011;9707;49.158;8.632;2023-12-07T07:21:12;7.35;;;4.55;;
19149;SDS011;9707;49.158;8.632;2023-12-07T07:23:38;9.02;;;5.75;;
19149;SDS011;9707;49.158;8.632;2023-12-07T07:26:03;7.65;;;5.70;;
19149;SDS011;9707;49.158;8.632;2023-12-07T07:28:29;8.48;;;6.00;;
19149;SDS011;9707;49.158;8.632;2023-12-07T07:30:54;10.48;;;6.63;;
19149;SDS011;9707;49.158;8.632;2023-12-07T07:33:19;10.73;;;7.72;;
19149;SDS011;9707;49.158;8.632;2023-12-07T07:35:45;9.43;;;6.53;;
19149;SDS011;9707;49.158;8.632;2023-12-07T07:38:10;11.70;;;7.15;;
19149;SDS011;9707;49.158;8.632;2023-12-07T07:40:35;9.25;;;7.00;;
19149;SDS011;9707;49.158;8.632;2023-12-07T07:43:01;8.88;;;7.50;;
19149;SDS011;9707;49.158;8.632;2023-12-07T07:45:26;13.45;;;7.85;;
19149;SDS011;9707;49.158;8.632;2023-12-07T07:47:51;11.98;;;7.63;;
19149;SDS011;9707;49.158;8.632;2023-12-07T07:50:16;8.63;;;6.95;;
19149;SDS011;9707;49.158;8.632;2023-12-07T07:52:42;9.18;;;7.53;;
19149;SDS011;9707;49.158;8.632;2023-12-07T07:55:08;11.65;;;7.30;;
19149;SDS011;9707;49.158;8.632;2023-12-07T07:57:33;11.70;;;7.78;;
19149;SDS011;9707;49.158;8.632;2023-12-07T07:59:58;12.38;;;8.30;;
19149;SDS011;9707;49.158;8.632;2023-12-07T08:02:24;10.50;;;8.48;;
19149;SDS011;9707;49.158;8.632;2023-12-07T08:04:49;13.35;;;8.48;;
19149;SDS011;9707;49.158;8.632;2023-12-07T08:07:16;15.63;;;7.03;;
19149;SDS011;9707;49.158;8.632;2023-12-07T08:09:42;11.57;;;7.72;;
19149;SDS011;9707;49.158;8.632;2023-12-07T08:12:07;7.53;;;5.72;;
19149;SDS011;9707;49.158;8.632;2023-12-07T08:14:34;9.35;;;6.22;;
19149;SDS011;9707;49.158;8.632;2023-12-07T08:17:00;10.88;;;7.38;;
19149;SDS011;9707;49.158;8.632;2023-12-07T08:19:26;14.95;;;8.25;;
19149;SDS011;9707;49.158;8.632;2023-12-07T08:21:51;11.35;;;8.40;;
19149;SDS011;9707;49.158;8.632;2023-12-07T08:24:16;9.77;;;7.72;;
19149;SDS011;9707;49.158;8.632;2023-12-07T08:26:41;11.90;;;8.45;;
19149;SDS011;9707;49.158;8.632;2023-12-07T08:29:07;10.23;;;7.25;;
19149;SDS011;9707;49.158;8.632;2023-12-07T08:31:32;14.35;;;8.38;;
19149;SDS011;9707;49.158;8.632;2023-12-07T08:33:58;13.50;;;8.70;;
19149;SDS011;9707;49.158;8.632;2023-12-07T08:36:23;11.55;;;8.68;;
19149;SDS011;9707;49.158;8.632;2023-12-07T08:38:48;13.95;;;9.73;;
19149;SDS011;9707;49.158;8.632;2023-12-07T08:41:13;12.88;;;8.80;;
19149;SDS011;9707;49.158;8.632;2023-12-07T08:43:39;14.38;;;8.43;;
19149;SDS011;9707;49.158;8.632;2023-12-07T08:46:04;9.75;;;6.20;;
19149;SDS011;9707;49.158;8.632;2023-12-07T08:48:32;11.05;;;7.35;;
19149;SDS011;9707;49.158;8.632;2023-12-07T08:50:57;7.05;;;6.03;;
19149;SDS011;9707;49.158;8.632;2023-12-07T08:53:22;12.00;;;9.10;;
19149;SDS011;9707;49.158;8.632;2023-12-07T08:55:48;15.68;;;10.18;;
19149;SDS011;9707;49.158;8.632;2023-12-07T08:58:13;11.13;;;7.68;;
19149;SDS011;9707;49.158;8.632;2023-12-07T09:00:38;11.52;;;8.02;;
19149;SDS011;9707;49.158;8.632;2023-12-07T09:03:03;9.07;;;6.85;;
19149;SDS011;9707;49.158;8.632;2023-12-07T09:05:29;13.60;;;8.40;;
19149;SDS011;9707;49.158;8.632;2023-12-07T09:07:55;9.30;;;6.35;;
19149;SDS011;9707;49.158;8.632;2023-12-07T09:10:21;10.23;;;7.15;;
19149;SDS011;9707;49.158;8.632;2023-12-07T09:12:47;11.50;;;8.70;;
19149;SDS011;9707;49.158;8.632;2023-12-07T09:15:12;11.30;;;8.95;;
19149;SDS011;9707;49.158;8.632;2023-12-07T09:17:38;11.15;;;7.95;;
19149;SDS011;9707;49.158;8.632;2023-12-07T09:20:04;12.43;;;8.00;;
19149;SDS011;9707;49.158;8.632;2023-12-07T09:22:37;9.55;;;7.82;;
19149;SDS011;9707;49.158;8.632;2023-12-07T09:25:05;13.25;;;7.78;;
19149;SDS011;9707;49.158;8.632;2023-12-07T09:27:32;11.35;;;8.82;;
19149;SDS011;9707;49.158;8.632;2023-12-07T09:29:59;10.98;;;8.23;;
19149;SDS011;9707;49.158;8.632;2023-12-07T09:32:25;10.88;;;7.03;;
19149;SDS011;9707;49.158;8.632;2023-12-07T09:34:50;11.35;;;7.78;;
19149;SDS011;9707;49.158;8.632;2023-12-07T09:37:17;12.52;;;8.40;;
19149;SDS011;9707;49.158;8.632;2023-12-07T09:39:42;8.38;;;6.25;;
19149;SDS011;9707;49.158;8.632;2023-12-07T09:42:07;12.80;;;8.10;;
19149;SDS011;9707;49.158;8.632;2023-12-07T09:44:33;9.50;;;7.10;;
19149;SDS011;9707;49.158;8.632;2023-12-07T09:46:58;10.32;;;7.60;;
19149;SDS011;9707;49.158;8.632;2023-12-07T09:49:24;11.48;;;7.43;;
19149;SDS011;9707;49.158;8.632;2023-12-07T09:51:50;15.32;;;9.25;;
19149;SDS011;9707;49.158;8.632;2023-12-07T09:54:16;15.90;;;10.77;;
19149;SDS011;9707;49.158;8.632;2023-12-07T09:56:42;12.32;;;7.75;;
19149;SDS011;9707;49.158;8.632;2023-12-07T09:59:08;15.38;;;9.63;;
19149;SDS011;9707;49.158;8.632;2023-12-07T10:01:33;23.10;;;13.48;;
19149;SDS011;9707;49.158;8.632;2023-12-07T10:07:01;11.15;;;8.32;;
19149;SDS011;9707;49.158;8.632;2023-12-07T10:09:27;9.75;;;6.43;;
19149;SDS011;9707;49.158;8.632;2023-12-07T10:12:01;12.38;;;9.38;;
19149;SDS011;9707;49.158;8.632;2023-12-07T10:14:28;12.05;;;8.90;;
19149;SDS011;9707;49.158;8.632;2023-12-07T10:16:54;12.43;;;8.77;;
19149;SDS011;9707;49.158;8.632;2023-12-07T10:19:20;13.73;;;8.55;;
19149;SDS011;9707;49.158;8.632;2023-12-07T10:21:49;10.30;;;7.07;;
19149;SDS011;9707;49.158;8.632;2023-12-07T10:24:17;8.25;;;6.28;;
19149;SDS011;9707;49.158;8.632;2023-12-07T10:26:44;11.02;;;6.70;;
19149;SDS011;9707;49.158;8.632;2023-12-07T10:29:10;10.65;;;8.65;;
19149;SDS011;9707;49.158;8.632;2023-12-07T10:31:36;10.60;;;8.43;;
19149;SDS011;9707;49.158;8.632;2023-12-07T10:34:02;7.95;;;6.15;;
19149;SDS011;9707;49.158;8.632;2023-12-07T10:36:27;10.85;;;8.65;;
19149;SDS011;9707;49.158;8.632;2023-12-07T10:38:53;14.05;;;9.43;;
19149;SDS011;9707;49.158;8.632;2023-12-07T10:41:21;12.05;;;7.90;;
19149;SDS011;9707;49.158;8.632;2023-12-07T10:43:49;13.75;;;9.73;;
19149;SDS011;9707;49.158;8.632;2023-12-07T10:46:17;14.65;;;8.98;;
19149;SDS011;9707;49.158;8.632;2023-12-07T10:48:45;11.75;;;8.65;;
19149;SDS011;9707;49.158;8.632;2023-12-07T10:51:19;19.30;;;11.40;;
19149;SDS011;9707;49.158;8.632;2023-12-07T10:53:51;17.30;;;10.95;;
19149;SDS011;9707;49.158;8.632;2023-12-07T10:59:09;13.02;;;9.20;;
19149;SDS011;9707;49.158;8.632;2023-12-07T11:01:38;14.65;;;10.40;;
19149;SDS011;9707;49.158;8.632;2023-12-07T11:04:04;14.45;;;10.43;;
19149;SDS011;9707;49.158;8.632;2023-12-07T11:06:30;11.07;;;8.95;;
19149;SDS011;9707;49.158;8.632;2023-12-07T11:09:00;15.27;;;8.90;;
19149;SDS011;9707;49.158;8.632;2023-12-07T11:11:36;14.00;;;9.43;;
19149;SDS011;9707;49.158;8.632;2023-12-07T11:14:09;10.20;;;8.35;;
19149;SDS011;9707;49.158;8.632;2023-12-07T11:16:41;10.70;;;8.45;;
19149;SDS011;9707;49.158;8.632;2023-12-07T11:21:58;9.15;;;6.93;;
19149;SDS011;9707;49.158;8.632;2023-12-07T11:24:32;10.75;;;7.20;;
19149;SDS011;9707;49.158;8.632;2023-12-07T11:26:57;8.95;;;6.75;;
19149;SDS011;9707;49.158;8.632;2023-12-07T11:29:27;6.20;;;4.82;;
19149;SDS011;9707;49.158;8.632;2023-12-07T11:31:57;11.68;;;6.50;;
19149;SDS011;9707;49.158;8.632;2023-12-07T11:34:33;8.88;;;6.93;;
19149;SDS011;9707;49.158;8.632;2023-12-07T11:36:59;8.32;;;4.90;;
19149;SDS011;9707;49.158;8.632;2023-12-07T11:39:26;8.10;;;5.78;;
19149;SDS011;9707;49.158;8.632;2023-12-07T11:41:54;9.30;;;5.90;;
19149;SDS011;9707;49.158;8.632;2023-12-07T11:44:24;6.70;;;5.50;;
19149;SDS011;9707;49.158;8.632;2023-12-07T11:46:57;6.03;;;4.70;;
19149;SDS011;9707;49.158;8.632;2023-12-07T11:49:23;5.32;;;4.68;;
19149;SDS011;9707;49.158;8.632;2023-12-07T11:51:48;6.45;;;4.93;;
19149;SDS011;9707;49.158;8.632;2023-12-07T11:54:14;6.90;;;4.38;;
19149;SDS011;9707;49.158;8.632;2023-12-07T11:56:40;6.82;;;4.50;;
19149;SDS011;9707;49.158;8.632;2023-12-07T11:59:06;5.63;;;4.20;;
19149;SDS011;9707;49.158;8.632;2023-12-07T12:01:31;5.30;;;4.53;;
19149;SDS011;9707;49.158;8.632;2023-12-07T12:03:57;6.90;;;3.97;;
19149;SDS011;9707;49.158;8.632;2023-12-07T12:06:24;6.60;;;4.78;;
19149;SDS011;9707;49.158;8.632;2023-12-07T12:08:49;6.60;;;4.00;;
19149;SDS011;9707;49.158;8.632;2023-12-07T12:11:14;8.35;;;5.80;;
19149;SDS011;9707;49.158;8.632;2023-12-07T12:13:40;6.75;;;4.93;;
19149;SDS011;9707;49.158;8.632;2023-12-07T12:16:06;9.73;;;5.57;;
19149;SDS011;9707;49.158;8.632;2023-12-07T12:18:32;7.30;;;4.93;;
19149;SDS011;9707;49.158;8.632;2023-12-07T12:20:57;7.00;;;4.80;;
19149;SDS011;9707;49.158;8.632;2023-12-07T12:23:24;7.50;;;4.72;;
19149;SDS011;9707;49.158;8.632;2023-12-07T12:25:49;6.10;;;4.80;;
19149;SDS011;9707;49.158;8.632;2023-12-07T12:28:16;6.25;;;4.82;;
19149;SDS011;9707;49.158;8.632;2023-12-07T12:30:47;6.30;;;4.78;;
19149;SDS011;9707;49.158;8.632;2023-12-07T12:33:13;9.60;;;6.65;;
19149;SDS011;9707;49.158;8.632;2023-12-07T12:35:39;6.97;;;4.57;;
19149;SDS011;9707;49.158;8.632;2023-12-07T12:38:08;8.48;;;5.55;;
19149;SDS011;9707;49.158;8.632;2023-12-07T12:40:37;6.95;;;4.90;;
19149;SDS011;9707;49.158;8.632;2023-12-07T12:43:02;8.73;;;6.45;;
19149;SDS011;9707;49.158;8.632;2023-12-07T12:45:27;11.40;;;6.15;;
19149;SDS011;9707;49.158;8.632;2023-12-07T12:47:53;5.55;;;4.10;;
19149;SDS011;9707;49.158;8.632;2023-12-07T12:50:35;6.32;;;4.47;;
19149;SDS011;9707;49.158;8.632;2023-12-07T12:53:02;6.70;;;4.13;;
19149;SDS011;9707;49.158;8.632;2023-12-07T12:55:41;9.95;;;5.85;;
19149;SDS011;9707;49.158;8.632;2023-12-07T12:58:08;4.90;;;3.35;;
19149;SDS011;9707;49.158;8.632;2023-12-07T13:00:37;6.38;;;5.10;;
19149;SDS011;9707;49.158;8.632;2023-12-07T13:03:04;5.75;;;3.85;;
19149;SDS011;9707;49.158;8.632;2023-12-07T13:05:30;4.68;;;3.60;;
19149;SDS011;9707;49.158;8.632;2023-12-07T13:07:57;6.15;;;4.38;;
19149;SDS011;9707;49.158;8.632;2023-12-07T13:10:23;6.05;;;3.60;;
19149;SDS011;9707;49.158;8.632;2023-12-07T13:12:49;6.20;;;4.85;;
19149;SDS011;9707;49.158;8.632;2023-12-07T13:15:14;11.25;;;6.00;;
19149;SDS011;9707;49.158;8.632;2023-12-07T13:17:40;6.63;;;4.47;;
19149;SDS011;9707;49.158;8.632;2023-12-07T13:20:06;5.95;;;4.32;;
19149;SDS011;9707;49.158;8.632;2023-12-07T13:22:35;5.43;;;3.90;;
19149;SDS011;9707;49.158;8.632;2023-12-07T13:25:01;5.05;;;3.55;;
19149;SDS011;9707;49.158;8.632;2023-12-07T13:27:27;3.97;;;3.22;;
19149;SDS011;9707;49.158;8.632;2023-12-07T13:29:53;7.80;;;5.22;;
19149;SDS011;9707;49.158;8.632;2023-12-07T13:32:18;9.98;;;5.65;;
19149;SDS011;9707;49.158;8.632;2023-12-07T13:34:43;6.88;;;4.40;;
19149;SDS011;9707;49.158;8.632;2023-12-07T13:37:09;9.15;;;5.18;;
19149;SDS011;9707;49.158;8.632;2023-12-07T13:39:34;7.35;;;5.35;;
19149;SDS011;9707;49.158;8.632;2023-12-07T13:41:59;8.70;;;5.78;;
19149;SDS011;9707;49.158;8.632;2023-12-07T13:44:25;7.60;;;4.60;;
19149;SDS011;9707;49.158;8.632;2023-12-07T13:46:53;7.22;;;5.20;;
19149;SDS011;9707;49.158;8.632;2023-12-07T13:49:19;10.93;;;5.40;;
19149;SDS011;9707;49.158;8.632;2023-12-07T13:51:45;7.35;;;4.70;;
19149;SDS011;9707;49.158;8.632;2023-12-07T13:54:11;6.82;;;4.38;;
19149;SDS011;9707;49.158;8.632;2023-12-07T13:56:37;7.15;;;4.82;;
19149;SDS011;9707;49.158;8.632;2023-12-07T13:59:02;6.95;;;5.13;;
19149;SDS011;9707;49.158;8.632;2023-12-07T14:01:27;7.60;;;4.80;;
19149;SDS011;9707;49.158;8.632;2023-12-07T14:03:53;10.68;;;6.70;;
19149;SDS011;9707;49.158;8.632;2023-12-07T14:06:21;9.73;;;6.18;;
19149;SDS011;9707;49.158;8.632;2023-12-07T14:08:48;15.73;;;8.18;;
19149;SDS011;9707;49.158;8.632;2023-12-07T14:11:14;25.27;;;12.77;;
19149;SDS011;9707;49.158;8.632;2023-12-07T14:13:39;22.25;;;14.02;;
19149;SDS011;9707;49.158;8.632;2023-12-07T14:16:05;9.73;;;6.20;;
19149;SDS011;9707;49.158;8.632;2023-12-07T14:18:32;9.35;;;5.78;;
19149;SDS011;9707;49.158;8.632;2023-12-07T14:20:58;6.68;;;5.50;;
19149;SDS011;9707;49.158;8.632;2023-12-07T14:23:23;6.93;;;4.10;;
19149;SDS011;9707;49.158;8.632;2023-12-07T14:25:49;5.30;;;4.13;;
19149;SDS011;9707;49.158;8.632;2023-12-07T14:28:16;8.00;;;4.55;;
19149;SDS011;9707;49.158;8.632;2023-12-07T14:30:42;5.43;;;3.40;;
19149;SDS011;9707;49.158;8.632;2023-12-07T14:33:07;4.85;;;4.32;;
19149;SDS011;9707;49.158;8.632;2023-12-07T14:35:32;6.50;;;5.00;;
19149;SDS011;9707;49.158;8.632;2023-12-07T14:37:58;8.77;;;4.95;;
19149;SDS011;9707;49.158;8.632;2023-12-07T14:40:23;6.93;;;4.43;;
19149;SDS011;9707;49.158;8.632;2023-12-07T14:42:48;6.30;;;4.40;;
19149;SDS011;9707;49.158;8.632;2023-12-07T14:45:14;6.60;;;4.57;;
19149;SDS011;9707;49.158;8.632;2023-12-07T14:47:40;8.55;;;5.78;;
19149;SDS011;9707;49.158;8.632;2023-12-07T14:50:05;6.65;;;4.55;;
19149;SDS011;9707;49.158;8.632;2023-12-07T14:52:30;6.13;;;4.65;;
19149;SDS011;9707;49.158;8.632;2023-12-07T14:54:56;7.65;;;5.00;;
19149;SDS011;9707;49.158;8.632;2023-12-07T14:57:21;7.38;;;4.93;;